Latest Weather Observations for East Sale

IDV60801

Issued at 6:35 pm EDT Wednesday 22 October 2014 (issued every 30 minutes, with the page automatically refreshed every 10 minutes)

About weather observations | Map of weather stations | Latest weather observations for VIC | Other Formats
Station Details ID: 085072 Name: EAST SALE AIRPORT Lat: -38.12 Lon: 147.13 Height: 4.6 m
Data from the previous 72 hours. | See also: Recent months at East Sale
Date/Time
EDT
Temp
°C
App
Temp
°C
Dew
Point
Rel
Hum
%
Delta-T
°C
Wind Press
QNH
hPa
Press
MSL
hPa
Rain
since 9 am
mm
Dir
 
Spd
km/h
Gust
km/h
Spd
kts
Gust
kts
22/06:30pm 22.5 20.3 14.9 62 4.5 E 20 24 11 13 1015.6 - 0.0
22/06:00pm 25.3 22.2 13.5 48 6.9 E 22 28 12 15 1015.5 1015.5 0.0
22/05:30pm 26.0 22.9 13.4 45 7.4 E 22 28 12 15 1015.4 - 0.0
22/05:00pm 27.0 24.4 13.9 44 7.8 E 20 28 11 15 1015.4 - 0.0
22/04:30pm 30.3 29.3 10.2 28 11.4 NW 6 13 3 7 1015.5 - 0.0
22/04:00pm 29.4 28.6 11.6 33 10.3 W 7 15 4 8 1015.8 - 0.0
22/03:30pm 28.8 27.7 12.1 35 9.7 NNE 9 13 5 7 1016.2 - 0.0
22/03:00pm 28.4 27.2 11.5 35 9.7 NE 9 13 5 7 1016.5 1016.5 0.0
22/02:30pm 27.4 26.1 12.4 39 8.7 E 11 17 6 9 1016.9 - 0.0
22/02:00pm 27.0 26.7 14.3 45 7.6 E 9 13 5 7 1017.3 - 0.0
22/01:30pm 26.3 25.5 14.0 46 7.3 E 11 15 6 8 1017.7 - 0.0
22/01:00pm 26.1 25.2 12.6 43 7.8 E 9 15 5 8 1018.0 - 0.0
22/12:30pm 25.6 25.0 13.5 47 7.1 ENE 9 13 5 7 1018.4 - 0.0
22/12:00pm 23.6 24.3 16.2 63 4.5 E 7 13 4 7 1019.1 1019.1 0.0
22/11:30am 22.2 22.9 15.7 66 3.9 S 6 9 3 5 1019.6 - 0.0
22/11:00am 19.8 20.1 14.5 71 3.1 SE 6 9 3 5 1019.8 - 0.0
22/10:30am 19.6 19.9 13.3 67 3.6 N 4 9 2 5 1020.0 - 0.0
22/10:00am 17.7 17.4 12.7 72 2.8 NNW 6 9 3 5 1020.4 - 0.0
22/09:30am 15.8 15.4 12.3 80 1.9 NNE 6 9 3 5 1020.8 - 0.0
22/09:00am 14.1 13.5 11.7 85 1.3 N 6 7 3 4 1020.8 1020.8 0.0
22/08:30am 12.5 11.9 11.6 94 0.5 NNW 6 9 3 5 1021.1 - 0.0
22/08:00am 10.7 9.6 10.1 96 0.3 WNW 6 7 3 4 1021.4 - 0.0
22/07:30am 9.5 7.9 8.9 96 0.3 W 7 9 4 5 1021.4 - 0.0
22/07:00am 8.0 6.1 7.6 97 0.2 W 7 9 4 5 1021.4 - 0.0
22/06:56am 7.8 5.9 7.6 99 0.1 WNW 7 9 4 5 1021.5 - 0.0
22/06:30am 7.7 5.8 7.5 99 0.1 WNW 7 9 4 5 1021.4 - 0.0
22/06:18am 7.4 5.0 7.2 99 0.1 WNW 9 11 5 6 1021.5 - 0.0
22/06:16am 7.3 5.0 7.3 100 0.0 WNW 9 11 5 6 1021.5 - 0.0
22/06:00am 7.5 5.2 7.3 99 0.1 WNW 9 9 5 5 1021.3 1021.3 0.0
22/05:56am 7.5 5.2 7.3 99 0.1 WNW 9 9 5 5 1021.3 - 0.0
22/05:45am 7.1 4.6 6.7 97 0.2 WNW 9 11 5 6 1021.3 - 0.0
22/05:30am 7.5 5.1 7.1 97 0.2 W 9 11 5 6 1021.3 - 0.0
22/05:27am 7.3 4.9 7.1 99 0.1 W 9 11 5 6 1021.3 - 0.0
22/05:00am 7.9 6.2 7.7 99 0.1 NW 6 7 3 4 1021.2 - 0.0
22/04:50am 8.2 6.6 7.8 97 0.2 NW 6 7 3 4 1021.2 - 0.0
22/04:30am 7.8 5.5 7.6 99 0.1 NW 9 9 5 5 1021.3 - 0.0
22/04:11am 8.1 6.3 7.9 99 0.1 NNW 7 9 4 5 1021.5 - 0.0
22/04:10am 8.1 6.2 7.7 97 0.2 NNW 7 9 4 5 1021.5 - 0.0
22/04:00am 8.1 6.3 7.9 99 0.1 NW 7 9 4 5 1021.6 - 0.0
22/03:51am 8.0 6.2 8.0 100 0.0 NW 7 9 4 5 1021.7 - 0.0
22/03:45am 8.1 6.3 8.1 100 0.0 NNW 7 9 4 5 1021.8 - 0.0
22/03:31am 8.5 6.8 8.3 99 0.1 NW 7 9 4 5 1021.9 - 0.0
22/03:30am 8.5 6.8 8.3 99 0.1 NW 7 9 4 5 1021.9 - 0.0
22/03:03am 8.5 6.8 8.3 99 0.1 NW 7 9 4 5 1022.2 - 0.0
22/03:02am 8.5 6.8 8.3 99 0.1 NW 7 9 4 5 1022.2 - 0.0
22/03:00am 8.5 6.8 8.3 99 0.1 NW 7 9 4 5 1022.2 1022.2 0.0
22/02:30am 8.5 6.4 8.3 99 0.1 NW 9 11 5 6 1022.6 - 0.0
22/02:00am 9.4 8.0 9.0 97 0.2 NW 6 7 3 4 1023.1 - 0.0
22/01:30am 10.1 8.9 9.7 97 0.2 WNW 6 7 3 4 1023.6 - 0.0
22/01:00am 9.7 8.2 9.3 97 0.2 WNW 7 9 4 5 1024.2 - 0.0
22/12:30am 10.0 8.2 9.6 97 0.2 WNW 9 11 5 6 1024.6 - 0.0
22/12:00am 10.2 8.1 9.6 96 0.3 WNW 11 13 6 7 1024.9 1024.9 0.0
 
Date/Time
EDT
Temp
°C
App
Temp
°C
Dew
Point
Rel
Hum
%
Delta-T
°C
Wind Press
QNH
hPa
Press
MSL
hPa
Rain
since 9 am
mm
Dir
 
Spd
km/h
Gust
km/h
Spd
kts
Gust
kts
21/11:30pm 10.0 8.8 9.6 97 0.2 W 6 9 3 5 1025.0 - 0.0
21/11:00pm 11.8 10.7 10.8 94 0.5 SW 7 7 4 4 1025.3 - 0.0
21/10:30pm 12.2 11.2 11.1 93 0.6 S 7 9 4 5 1025.5 - 0.0
21/10:00pm 12.5 11.2 11.2 92 0.7 S 9 11 5 6 1025.6 - 0.0
21/09:30pm 12.8 11.1 11.3 91 0.8 S 11 13 6 7 1025.8 - 0.0
21/09:00pm 13.2 11.6 11.5 89 0.9 SSE 11 15 6 8 1025.7 1025.7 0.0
21/08:30pm 13.5 11.5 11.6 88 1.0 SSE 13 15 7 8 1025.8 - 0.0
21/08:00pm 13.9 13.0 11.5 85 1.3 SSE 7 9 4 5 1025.8 - 0.0
21/07:30pm 14.8 12.8 11.6 81 1.7 ESE 13 15 7 8 1025.6 - 0.0
21/07:00pm 15.8 13.1 11.7 76 2.2 ESE 17 20 9 11 1025.6 - 0.0
21/06:30pm 16.7 13.6 11.5 71 2.8 ESE 19 24 10 13 1025.7 - 0.0
21/06:00pm 17.6 13.3 10.7 64 3.7 E 24 28 13 15 1025.7 1025.7 0.0
21/05:30pm 18.1 13.4 10.7 62 4.0 E 26 30 14 16 1025.7 - 0.0
21/05:00pm 18.4 14.3 10.1 58 4.4 E 22 28 12 15 1025.9 - 0.0
21/04:30pm 18.6 14.5 10.0 57 4.6 ESE 22 28 12 15 1026.0 - 0.0
21/04:00pm 18.6 14.3 9.5 55 4.8 E 22 28 12 15 1026.3 - 0.0
21/03:30pm 19.0 14.4 9.8 55 4.9 E 24 30 13 16 1026.6 - 0.0
21/03:00pm 18.9 14.3 9.7 55 4.8 E 24 32 13 17 1026.9 1026.9 0.0
21/02:30pm 18.4 14.1 9.2 55 4.8 E 22 30 12 16 1027.3 - 0.0
21/02:00pm 18.7 14.5 9.6 55 4.8 E 22 30 12 16 1027.8 - 0.0
21/01:30pm 18.2 14.2 9.0 55 4.8 E 20 30 11 16 1028.1 - 0.0
21/01:00pm 18.4 14.7 9.5 56 4.7 ESE 19 37 10 20 1028.4 - 0.0
21/12:30pm 17.6 13.3 9.4 58 4.3 E 22 28 12 15 1028.7 - 0.0
21/12:00pm 16.8 12.7 8.6 58 4.2 E 20 28 11 15 1029.0 1029.0 0.0
21/11:30am 16.5 12.3 8.2 58 4.2 E 20 26 11 14 1029.5 - 0.0
21/11:00am 16.2 11.9 7.8 57 4.2 E 20 26 11 14 1029.7 - 0.0
21/10:30am 16.0 12.0 8.1 59 4.0 E 19 24 10 13 1030.0 - 0.0
21/10:00am 15.1 10.3 7.2 59 3.9 E 22 26 12 14 1030.1 - 0.0
21/09:30am 14.7 9.2 7.6 62 3.5 E 26 35 14 19 1030.2 - 0.0
21/09:00am 13.9 8.4 7.6 66 3.1 ENE 26 32 14 17 1030.1 1030.1 0.0
21/08:30am 13.0 8.9 7.7 70 2.6 ENE 19 26 10 14 1030.0 - 0.0
21/08:00am 11.3 9.3 7.1 75 2.0 NE 7 11 4 6 1030.0 - 0.0
21/07:30am 10.2 8.3 6.6 78 1.7 NE 6 7 3 4 1029.9 - 0.0
21/07:00am 7.4 4.0 5.8 90 0.7 NE 13 17 7 9 1029.6 - 0.0
21/06:30am 6.9 3.4 5.6 91 0.6 ENE 13 13 7 7 1029.5 - 0.0
21/06:00am 7.0 3.1 5.4 89 0.7 ENE 15 17 8 9 1029.2 1029.2 0.0
21/05:30am 8.0 4.2 6.0 87 0.9 ENE 15 17 8 9 1029.3 - 0.0
21/05:00am 7.9 4.2 6.1 88 0.8 ENE 15 15 8 8 1029.3 - 0.0
21/04:30am 6.9 3.4 5.3 89 0.7 ENE 13 15 7 8 1029.3 - 0.0
21/04:00am 7.2 4.1 5.6 89 0.7 ENE 11 13 6 7 1029.5 - 0.0
21/03:30am 7.9 4.5 5.9 87 0.9 ENE 13 15 7 8 1029.8 - 0.0
21/03:00am 9.1 5.9 6.7 85 1.1 NE 13 19 7 10 1030.0 1030.0 0.0
21/02:30am 10.9 7.4 7.1 77 1.8 NE 15 20 8 11 1030.2 - 0.0
21/02:00am 12.8 6.7 6.8 67 2.9 ENE 28 39 15 21 1030.4 - 0.0
21/01:30am 13.2 5.5 7.0 66 3.0 E 37 48 20 26 1030.6 - 0.0
21/01:00am 13.3 5.2 6.9 65 3.1 E 39 48 21 26 1031.0 - 0.0
21/12:30am 13.4 6.4 6.8 64 3.2 E 33 43 18 23 1031.4 - 0.0
21/12:00am 12.8 5.8 7.0 68 2.8 E 33 46 18 25 1031.6 1031.6 0.0
 
Date/Time
EDT
Temp
°C
App
Temp
°C
Dew
Point
Rel
Hum
%
Delta-T
°C
Wind Press
QNH
hPa
Press
MSL
hPa
Rain
since 9 am
mm
Dir
 
Spd
km/h
Gust
km/h
Spd
kts
Gust
kts
20/11:30pm 12.6 5.1 6.5 66 2.9 E 35 44 19 24 1031.9 - 0.0
20/11:00pm 12.2 5.2 6.8 69 2.6 E 33 44 18 24 1032.1 - 0.0
20/10:30pm 12.6 5.9 5.8 63 3.2 E 30 43 16 23 1032.2 - 0.0
20/10:00pm 12.5 5.3 6.1 65 3.0 E 33 44 18 24 1032.1 - 0.0
20/09:30pm 12.4 4.5 6.3 66 2.9 E 37 46 20 25 1032.1 - 0.0
20/09:00pm 12.3 4.5 6.6 68 2.7 E 37 46 20 25 1032.0 1032.0 0.0
20/08:30pm 12.5 5.5 6.1 65 3.0 E 32 48 17 26 1031.6 - 0.0
20/08:00pm 12.8 5.4 5.0 59 3.6 E 33 44 18 24 1031.5 - 0.0
20/07:30pm 12.5 5.9 5.9 64 3.1 E 30 39 16 21 1031.5 - 0.0
20/07:00pm 13.3 5.9 5.1 57 3.8 E 33 43 18 23 1031.2 - 0.0
20/06:30pm 13.8 6.1 5.5 57 3.9 E 35 46 19 25 1031.1 - 0.0
20/06:00pm 14.1 6.8 5.6 56 4.0 E 33 46 18 25 1031.1 1031.1 0.0
20/05:30pm 14.7 7.1 5.7 55 4.3 E 35 46 19 25 1030.9 - 0.0
20/05:00pm 14.4 6.7 5.5 55 4.2 E 35 46 19 25 1030.8 - 0.0
20/04:30pm 15.0 7.4 5.8 54 4.4 E 35 46 19 25 1030.8 - 0.0
20/04:00pm 16.0 7.9 6.9 54 4.5 E 39 44 21 24 1030.8 - 0.0
20/03:30pm 16.1 8.4 7.0 54 4.5 E 37 46 20 25 1030.7 - 0.0
20/03:00pm 16.0 8.1 7.8 58 4.1 E 39 48 21 26 1030.7 1030.7 0.0
20/02:30pm 16.6 8.8 8.4 58 4.2 E 39 50 21 27 1030.9 - 0.0
20/02:00pm 16.4 8.9 7.9 57 4.3 E 37 44 20 24 1031.1 - 0.0
20/01:30pm 16.3 9.0 4.6 46 5.5 ESE 32 39 17 21 1031.2 - 0.0
20/01:00pm 16.2 10.4 6.1 51 4.9 E 26 33 14 18 1031.3 - 0.0
20/12:30pm 16.2 11.0 7.4 56 4.4 ESE 24 33 13 18 1031.7 - 0.0
20/12:00pm 15.7 11.3 7.5 58 4.0 E 20 30 11 16 1032.1 1032.1 0.0
20/11:30am 14.7 10.1 6.4 57 4.0 E 20 28 11 15 1032.3 - 0.0
20/11:00am 15.5 11.3 5.7 52 4.7 ENE 17 35 9 19 1032.5 - 0.0
20/10:30am 15.3 10.4 2.3 41 5.8 E 17 20 9 11 1032.5 - 0.0
20/10:00am 14.8 11.6 5.0 52 4.6 ESE 11 20 6 11 1032.5 - 0.0
20/09:30am 14.3 10.1 5.9 57 4.0 SE 17 24 9 13 1032.5 - 0.0
20/09:00am 13.8 10.0 5.8 58 3.8 SSE 15 19 8 10 1032.4 1032.4 0.0
20/08:30am 12.8 9.8 6.0 63 3.2 S 11 15 6 8 1032.0 - 0.0
20/08:00am 11.0 8.0 6.1 72 2.3 S 11 13 6 7 1031.6 - 0.0
20/07:30am 10.2 8.0 6.3 77 1.8 SSW 7 9 4 5 1031.3 - 0.0
20/07:00am 8.7 6.0 5.4 80 1.5 SW 9 11 5 6 1031.1 - 0.0
20/06:30am 8.5 6.2 5.9 84 1.2 SW 7 9 4 5 1030.9 - 0.0
20/06:00am 8.6 5.9 5.5 81 1.4 SW 9 13 5 7 1030.7 1030.7 0.0
20/05:30am 9.4 6.0 5.9 79 1.6 SSW 13 17 7 9 1030.5 - 0.0
20/05:00am 9.5 6.6 6.3 80 1.5 SW 11 13 6 7 1030.3 - 0.0
20/04:30am 10.2 7.0 6.8 79 1.6 SW 13 20 7 11 1030.2 - 0.0
20/04:00am 11.1 7.6 7.3 77 1.8 SW 15 19 8 10 1030.1 - 0.0
20/03:30am 11.5 8.4 7.3 75 2.0 SW 13 20 7 11 1030.2 - 0.0
20/03:00am 11.4 8.4 7.7 78 1.8 WSW 13 17 7 9 1029.9 1029.9 0.0
20/02:30am 11.5 9.3 7.8 78 1.8 SW 9 15 5 8 1029.7 - 0.0
20/02:00am 11.8 8.8 7.5 75 2.1 SSW 13 20 7 11 1029.6 - 0.0
20/01:30am 11.5 8.8 7.3 75 2.0 SW 11 19 6 10 1029.4 - 0.0
20/01:00am 11.8 7.9 7.2 73 2.2 SW 17 24 9 13 1029.3 - 0.0
20/12:30am 12.3 6.9 7.8 74 2.2 SSW 26 35 14 19 1028.7 - 0.0
20/12:00am 13.3 8.2 9.2 76 2.1 SSW 26 39 14 21 1028.1 1028.1 0.0
 
Date/Time
EDT
Temp
°C
App
Temp
°C
Dew
Point
Rel
Hum
%
Delta-T
°C
Wind Press
QNH
hPa
Press
MSL
hPa
Rain
since 9 am
mm
Dir
 
Spd
km/h
Gust
km/h
Spd
kts
Gust
kts
19/11:30pm 13.3 9.3 9.2 76 2.1 SSW 20 32 11 17 1027.6 - 0.0
19/11:00pm 14.3 11.4 9.6 73 2.4 SSW 15 22 8 12 1027.3 - 0.0
19/10:30pm 14.4 12.4 10.2 76 2.2 SSW 11 17 6 9 1026.5 - 0.0
19/10:00pm 14.5 12.5 10.3 76 2.2 SW 11 17 6 9 1026.1 - 0.0
19/09:30pm 14.5 12.1 10.1 75 2.3 SW 13 17 7 9 1025.5 - 0.0
19/09:00pm 14.7 11.0 10.1 74 2.4 SW 20 32 11 17 1024.5 1024.5 0.0
19/08:30pm 15.3 13.0 10.6 73 2.5 SW 13 17 7 9 1023.7 - 0.0
19/08:00pm 15.7 13.3 11.4 75 2.3 SW 15 20 8 11 1022.7 - 0.0
19/07:30pm 16.2 12.1 11.4 73 2.6 SW 24 33 13 18 1021.8 - 0.0
19/07:00pm 16.0 12.7 12.7 81 1.8 S 22 28 12 15 1020.8 - 0.0

Other Formats:

Comma delimited format used in spreadsheet applications
http://www.bom.gov.au/fwo/IDV60801/IDV60801.94907.axf

JavaScript Object Notation format (JSON) in row-major order
http://www.bom.gov.au/fwo/IDV60801/IDV60801.94907.json